Latest Weather Observations for Stenhouse Bay

IDS60801

Issued at 8:35 am CST Thursday 18 September 2014 (issued every 30 minutes, with the page automatically refreshed every 10 minutes)

About weather observations | Map of weather stations | Latest weather observations for SA | Other Formats
Station Details ID: 022049 Name: STENHOUSE BAY Lat: -35.28 Lon: 136.94 Height: 42.0 m
Data from the previous 72 hours. | See also: Recent months at Stenhouse Bay
Date/Time
CST
Temp
°C
App
Temp
°C
Dew
Point
Rel
Hum
%
Delta-T
°C
Wind Press
QNH
hPa
Press
MSL
hPa
Rain
since 9 am
mm
Dir
 
Spd
km/h
Gust
km/h
Spd
kts
Gust
kts
18/08:30am 13.1 10.6 6.5 64 3.1 S 9 11 5 6 1027.1 1027.1 0.0
18/08:00am 12.6 10.5 6.6 67 2.8 SSE 7 13 4 7 1026.8 1026.8 0.0
18/07:30am 11.4 8.9 6.7 73 2.2 SSE 9 11 5 6 1026.4 1026.4 0.0
18/07:00am 11.1 8.6 6.6 74 2.1 SSE 9 13 5 7 1026.1 1026.1 0.0
18/06:30am 10.8 7.9 6.7 76 1.9 SSE 11 15 6 8 1025.6 1025.6 0.0
18/06:00am 10.0 7.3 5.8 75 1.9 S 9 13 5 7 1025.4 1025.4 0.0
18/05:30am 10.2 7.6 6.0 75 1.9 S 9 13 5 7 1025.3 1025.3 0.0
18/05:00am 10.6 7.4 6.9 78 1.8 SSE 13 19 7 10 1024.9 1024.9 0.0
18/04:30am 10.9 7.4 7.0 77 1.8 SSE 15 20 8 11 1024.7 1024.7 0.0
18/04:00am 11.3 7.7 6.8 74 2.1 S 15 20 8 11 1024.5 1024.5 0.0
18/03:30am 11.0 6.9 6.4 73 2.2 S 17 20 9 11 1024.5 1024.5 0.0
18/03:00am 11.0 6.3 6.0 71 2.3 SSE 20 24 11 13 1024.6 1024.6 0.0
18/02:30am 10.6 7.8 3.4 61 3.1 SSW 7 17 4 9 1024.8 1024.8 0.0
18/02:00am 9.7 6.5 3.0 63 2.9 WSW 9 13 5 7 1025.0 1025.0 0.0
18/01:30am 10.6 7.3 2.7 58 3.4 SW 9 13 5 7 1025.1 1025.1 0.0
18/01:00am 10.7 7.6 3.5 61 3.2 SSW 9 13 5 7 1025.3 1025.3 0.0
18/12:30am 10.7 7.5 3.3 60 3.2 S 9 19 5 10 1025.4 1025.4 0.0
18/12:00am 10.5 6.9 2.8 59 3.3 S 11 15 6 8 1025.6 1025.6 0.0
 
Date/Time
CST
Temp
°C
App
Temp
°C
Dew
Point
Rel
Hum
%
Delta-T
°C
Wind Press
QNH
hPa
Press
MSL
hPa
Rain
since 9 am
mm
Dir
 
Spd
km/h
Gust
km/h
Spd
kts
Gust
kts
17/11:30pm 10.8 7.2 2.9 58 3.4 S 11 19 6 10 1025.7 1025.7 0.0
17/11:00pm 11.0 7.1 3.3 59 3.4 S 13 17 7 9 1025.8 1025.8 0.0
17/10:30pm 10.9 6.6 3.2 59 3.3 S 15 19 8 10 1025.7 1025.7 0.0
17/10:00pm 10.8 6.5 3.1 59 3.4 S 15 20 8 11 1025.4 1025.4 0.0
17/09:30pm 11.0 6.0 3.8 61 3.2 S 19 26 10 14 1025.4 1025.4 0.0
17/09:00pm 11.3 6.4 4.1 61 3.2 S 19 24 10 13 1025.2 1025.2 0.0
17/08:30pm 11.3 6.4 4.3 62 3.1 S 19 26 10 14 1025.1 1025.1 0.0
17/08:00pm 11.5 6.0 4.0 60 3.4 S 22 30 12 16 1024.9 1024.9 0.0
17/07:30pm 11.8 6.1 4.8 62 3.2 S 24 28 13 15 1024.6 1024.6 0.0
17/07:00pm 12.1 7.7 4.6 60 3.4 SSW 17 24 9 13 1024.4 1024.4 0.0
17/06:30pm 12.1 7.4 5.0 62 3.2 SW 19 26 10 14 1024.2 1024.2 0.0
17/06:00pm 12.3 8.1 5.7 64 3.1 SW 17 26 9 14 1024.0 1024.0 0.0
17/05:30pm 13.0 8.3 5.9 62 3.3 SSW 20 28 11 15 1023.6 1023.6 0.0
17/05:00pm 13.5 9.0 5.9 60 3.6 SSW 19 26 10 14 1023.2 1023.2 0.0
17/04:30pm 14.1 9.8 7.2 63 3.4 SSW 19 28 10 15 1023.0 1023.0 0.0
17/04:00pm 14.4 10.1 7.2 62 3.5 SW 19 24 10 13 1022.9 1022.9 0.0
17/03:30pm 15.0 11.3 7.8 62 3.6 SW 17 24 9 13 1023.0 1023.0 0.0
17/03:00pm 15.1 10.7 7.2 59 3.9 SW 20 26 11 14 1022.9 1022.9 0.0
17/02:30pm 15.3 10.8 6.8 57 4.1 SW 20 28 11 15 1022.9 1022.9 0.0
17/02:00pm 15.5 11.4 6.2 54 4.5 SW 17 22 9 12 1022.6 1022.6 0.0
17/01:30pm 15.5 11.0 6.2 54 4.5 SSW 19 26 10 14 1022.5 1022.5 0.0
17/01:00pm 15.7 11.8 7.2 57 4.2 SW 17 28 9 15 1022.5 1022.5 0.0
17/12:30pm 15.1 10.4 5.9 54 4.4 SW 20 26 11 14 1022.8 1022.8 0.0
17/12:00pm 15.5 11.6 7.0 57 4.2 SW 17 24 9 13 1022.9 1022.9 0.0
17/11:30am 15.2 11.1 7.7 61 3.7 SW 19 28 10 15 1022.9 1022.9 0.0
17/11:00am 14.9 10.5 7.5 61 3.7 SW 20 30 11 16 1022.9 1022.9 0.0
17/10:30am 14.6 10.5 8.5 67 3.1 SSW 20 28 11 15 1022.8 1022.8 0.0
17/10:00am 14.7 11.2 8.6 67 3.1 SSW 17 24 9 13 1022.7 1022.7 0.0
17/09:30am 13.8 8.7 7.8 67 3.0 S 24 32 13 17 1022.4 1022.4 0.0
17/09:00am 13.6 8.9 7.8 68 2.9 S 22 33 12 18 1022.2 1022.2 2.6
17/08:30am 13.8 9.6 8.4 70 2.7 SSW 20 32 11 17 1021.9 1021.9 2.6
17/08:00am 12.9 8.4 8.6 75 2.2 SSW 22 33 12 18 1021.5 1021.5 2.6
17/07:30am 12.5 7.3 9.0 79 1.8 SSW 26 37 14 20 1021.0 1021.0 2.6
17/07:00am 11.8 7.5 9.2 84 1.3 S 22 33 12 18 1020.6 1020.6 2.6
17/06:30am 12.7 8.8 9.3 80 1.7 SW 20 39 11 21 1020.3 1020.3 2.2
17/06:00am 12.3 8.0 7.8 74 2.2 SSW 20 32 11 17 1020.0 1020.0 1.6
17/05:30am 12.2 8.4 8.9 80 1.6 SW 19 28 10 15 1019.6 1019.6 1.6
17/05:00am 12.1 7.9 8.4 78 1.8 SW 20 32 11 17 1019.4 1019.4 1.6
17/04:30am 11.6 7.5 7.7 77 1.9 SW 19 30 10 16 1019.4 1019.4 1.6
17/04:00am 11.7 6.5 8.7 82 1.5 SSW 26 32 14 17 1019.2 1019.2 1.6
17/03:30am 11.3 6.5 8.7 84 1.3 SW 24 33 13 18 1019.1 1019.1 1.6
17/03:00am 11.0 7.0 9.1 88 0.9 SW 20 33 11 18 1019.1 1019.1 1.6
17/02:30am 12.6 8.1 8.5 76 2.0 SW 22 33 12 18 1019.2 1019.2 0.8
17/02:00am 12.4 7.9 8.7 78 1.8 WSW 22 30 12 16 1019.3 1019.3 0.8
17/01:30am 12.2 7.8 8.9 80 1.6 WSW 22 30 12 16 1019.5 1019.5 0.8
17/01:00am 11.0 8.3 9.1 88 0.9 W 13 20 7 11 1019.6 1019.6 0.8
17/12:30am 11.1 8.1 7.8 80 1.6 W 13 19 7 10 1019.7 1019.7 0.8
17/12:00am 11.4 7.8 8.4 82 1.5 WSW 17 24 9 13 1019.8 1019.8 0.8
 
Date/Time
CST
Temp
°C
App
Temp
°C
Dew
Point
Rel
Hum
%
Delta-T
°C
Wind Press
QNH
hPa
Press
MSL
hPa
Rain
since 9 am
mm
Dir
 
Spd
km/h
Gust
km/h
Spd
kts
Gust
kts
16/11:30pm 11.7 7.8 7.2 74 2.2 WSW 17 28 9 15 1019.8 1019.8 0.8
16/11:00pm 12.1 7.9 7.6 74 2.2 WSW 19 26 10 14 1019.8 1019.8 0.8
16/10:30pm 12.2 7.5 7.9 75 2.1 WSW 22 30 12 16 1019.7 1019.7 0.8
16/10:00pm 10.8 8.2 7.7 81 1.5 W 11 15 6 8 1019.9 1019.9 0.8
16/09:30pm 12.2 9.2 7.5 73 2.3 W 13 33 7 18 1019.9 1019.9 0.8
16/09:00pm 12.6 8.7 5.5 62 3.3 WSW 15 24 8 13 1019.7 1019.7 0.8
16/08:30pm 12.7 7.1 5.4 61 3.4 SW 24 33 13 18 1019.5 1019.5 0.8
16/08:00pm 12.5 8.0 5.9 64 3.1 SW 19 28 10 15 1019.3 1019.3 0.8
16/07:30pm 12.6 7.5 5.8 63 3.2 WSW 22 33 12 18 1018.8 1018.8 0.8
16/07:00pm 12.7 8.4 7.2 69 2.7 SW 19 26 10 14 1018.3 1018.3 0.8
16/06:30pm 12.6 7.3 6.9 68 2.7 SW 24 35 13 19 1018.2 1018.2 0.8
16/06:00pm 12.5 6.2 5.7 63 3.2 SW 28 41 15 22 1018.0 1018.0 0.8
16/05:30pm 12.9 6.8 6.7 66 3.0 SW 28 37 15 20 1017.6 1017.6 0.8
16/05:00pm 13.6 8.5 7.6 67 3.0 SW 24 35 13 19 1017.4 1017.4 0.8
16/04:30pm 14.2 9.2 8.2 67 3.0 SW 24 37 13 20 1017.4 1017.4 0.8
16/04:00pm 14.3 9.5 8.7 69 2.8 SW 24 33 13 18 1017.2 1017.2 0.8
16/03:30pm 14.5 9.4 9.3 71 2.7 SW 26 39 14 21 1017.1 1017.1 0.8
16/03:00pm 14.5 9.1 8.0 65 3.2 WSW 26 33 14 18 1017.1 1017.1 0.8
16/02:30pm 14.6 9.3 8.5 67 3.1 WSW 26 33 14 18 1017.0 1017.0 0.8
16/02:00pm 15.4 10.1 8.4 63 3.5 WSW 26 33 14 18 1017.1 1017.1 0.8
16/01:30pm 15.9 11.1 8.9 63 3.6 WSW 24 33 13 18 1017.2 1017.2 0.8
16/01:00pm 15.3 10.7 9.7 69 2.9 SW 24 32 13 17 1017.4 1017.4 0.8
16/12:30pm 15.2 10.3 9.8 70 2.8 SW 26 37 14 20 1017.7 1017.7 0.8
16/12:00pm 15.4 10.3 10.6 73 2.5 SW 28 37 15 20 1018.1 1018.1 0.8
16/11:30am 14.9 10.3 11.1 78 2.0 WSW 26 35 14 19 1018.3 1018.3 0.8
16/11:00am 14.4 12.6 12.1 86 1.2 SW 13 19 7 10 1018.5 1018.5 0.8
16/10:30am 14.5 12.4 11.1 80 1.8 SSW 13 19 7 10 1018.5 1018.5 0.4
16/10:00am 14.2 12.1 11.0 81 1.7 WSW 13 24 7 13 1018.6 1018.6 0.4
16/09:30am 12.4 9.0 10.6 89 0.9 WSW 19 30 10 16 1018.7 1018.7 0.4
16/09:00am 14.7 11.9 9.9 73 2.5 W 15 22 8 12 1018.6 1018.6 0.0
16/08:30am 15.3 13.2 9.7 69 2.9 WSW 11 17 6 9 1018.3 1018.3 0.0
16/08:00am 14.4 11.1 9.4 72 2.6 WSW 17 24 9 13 1018.5 1018.5 0.0
16/07:30am 13.9 10.2 9.5 75 2.3 WSW 19 26 10 14 1018.4 1018.4 0.0
16/07:00am 13.1 9.1 9.2 77 2.0 WSW 20 32 11 17 1018.1 1018.1 0.0
16/06:30am 13.0 9.3 9.6 80 1.7 WSW 19 26 10 14 1017.9 1017.9 0.0
16/06:00am 12.7 9.8 9.5 81 1.6 W 15 24 8 13 1017.7 1017.7 0.0
16/05:30am 12.8 9.5 9.6 81 1.6 WSW 17 24 9 13 1017.5 1017.5 0.0
16/05:00am 13.0 9.3 9.6 80 1.7 SW 19 24 10 13 1017.4 1017.4 0.0
16/04:30am 13.3 9.7 9.9 80 1.7 WSW 19 26 10 14 1017.4 1017.4 0.0
16/04:00am 13.4 9.9 10.2 81 1.7 WSW 19 24 10 13 1017.4 1017.4 0.0
16/03:30am 13.2 9.4 9.8 80 1.7 WSW 20 24 11 13 1017.1 1017.1 0.0
16/03:00am 13.1 9.3 9.2 77 2.0 WSW 19 24 10 13 1017.1 1017.1 0.0
16/02:30am 13.2 9.5 9.3 77 2.0 WSW 19 26 10 14 1017.2 1017.2 0.0
16/02:00am 13.3 9.9 10.5 83 1.5 WSW 19 26 10 14 1017.4 1017.4 0.0
16/01:30am 13.1 9.5 9.9 81 1.6 SW 19 24 10 13 1017.6 1017.6 0.0
16/01:00am 13.0 9.9 10.2 83 1.4 WSW 17 24 9 13 1018.0 1018.0 0.0
16/12:30am 13.3 9.6 10.3 82 1.6 SW 20 26 11 14 1018.1 1018.1 0.0
16/12:00am 13.4 9.8 10.6 83 1.5 SW 20 32 11 17 1018.2 1018.2 0.0
 
Date/Time
CST
Temp
°C
App
Temp
°C
Dew
Point
Rel
Hum
%
Delta-T
°C
Wind Press
QNH
hPa
Press
MSL
hPa
Rain
since 9 am
mm
Dir
 
Spd
km/h
Gust
km/h
Spd
kts
Gust
kts
15/11:30pm 13.3 9.9 10.5 83 1.5 SW 19 26 10 14 1018.1 1018.1 0.0
15/11:00pm 13.3 10.4 11.0 86 1.2 SW 17 26 9 14 1018.3 1018.3 0.0
15/10:30pm 13.3 10.0 10.8 85 1.3 SW 19 26 10 14 1018.4 1018.4 0.0
15/10:00pm 13.7 10.3 10.7 82 1.6 SSW 19 28 10 15 1018.4 1018.4 0.0
15/09:30pm 13.8 10.3 11.0 83 1.5 SSW 20 32 11 17 1018.4 1018.4 0.0
15/09:00pm 13.5 9.9 10.7 83 1.5 SSW 20 32 11 17 1018.4 1018.4 0.0
15/08:30pm 13.6 9.6 10.6 82 1.6 SSW 22 35 12 19 1018.1 1018.1 0.0
15/08:00pm 13.8 9.1 10.6 81 1.7 SSW 26 35 14 19 1018.0 1018.0 0.0
15/07:30pm 13.8 9.3 10.2 79 1.9 SSW 24 37 13 20 1017.9 1017.9 0.0
15/07:00pm 13.9 9.5 10.5 80 1.8 SW 24 35 13 19 1017.6 1017.6 0.0
15/06:30pm 13.9 8.8 10.5 80 1.8 SW 28 37 15 20 1017.3 1017.3 0.0
15/06:00pm 14.1 10.4 10.3 78 2.0 SW 20 32 11 17 1016.7 1016.7 0.0
15/05:30pm 14.7 11.4 10.9 78 2.0 SW 19 32 10 17 1016.3 1016.3 0.0
15/05:00pm 14.9 10.2 10.7 76 2.2 SW 26 37 14 20 1016.1 1016.1 0.0
15/04:30pm 15.2 9.8 10.8 75 2.3 SW 30 41 16 22 1015.8 1015.8 0.0
15/04:00pm 15.8 11.2 11.2 74 2.5 SW 26 41 14 22 1015.5 1015.5 0.0
15/03:30pm 15.8 10.8 11.0 73 2.6 SW 28 41 15 22 1015.5 1015.5 0.0
15/03:00pm 16.6 11.7 11.3 71 2.9 SW 28 41 15 22 1015.4 1015.4 0.0
15/02:30pm 16.6 12.6 11.7 73 2.7 SSW 24 35 13 19 1015.2 1015.2 0.0
15/02:00pm 16.3 10.8 11.9 75 2.4 SW 32 41 17 22 1015.1 1015.1 0.0
15/01:30pm 16.4 11.1 12.4 77 2.2 SW 32 43 17 23 1015.2 1015.2 0.0
15/01:00pm 16.6 11.1 12.4 76 2.3 SW 33 43 18 23 1015.0 1015.0 0.0
15/12:30pm 17.4 12.9 12.7 74 2.6 SW 28 37 15 20 1014.9 1014.9 0.0
15/12:00pm 17.3 14.3 12.4 73 2.7 SW 20 30 11 16 1014.9 1014.9 0.0
15/11:30am 17.0 12.8 12.3 74 2.6 SSW 26 35 14 19 1014.8 1014.8 0.0
15/11:00am 16.7 11.8 12.5 76 2.3 SSW 30 43 16 23 1014.7 1014.7 0.0
15/10:30am 16.5 11.6 12.7 78 2.1 SSW 30 41 16 22 1014.5 1014.5 0.0
15/10:00am 16.3 11.0 12.5 78 2.1 SSW 32 46 17 25 1014.1 1014.1 0.0
15/09:30am 16.1 10.8 12.5 79 2.0 SSW 32 44 17 24 1013.9 1013.9 0.0
15/09:00am 15.4 9.9 12.0 80 1.8 SSW 32 48 17 26 1013.2 1013.2 0.0

Other Formats:

Comma delimited format used in spreadsheet applications
http://www.bom.gov.au/fwo/IDS60801/IDS60801.95806.axf

JavaScript Object Notation format (JSON) in row-major order
http://www.bom.gov.au/fwo/IDS60801/IDS60801.95806.json